Buoy 45509

sailwx.info

Track history (hours):
 
Tides and Currents Weather Stations Pressure Air Temp Water Temp Dewpoint Dewpoint Depression Visibility Wind Speed Wind Dir Waves Ship Positions

Drifting buoy 45509

Last reported at 2017-Nov-18 00:30 UTC. Time now 2017-Nov-18 01:21 UTC.
Position N 44°32' W 087°59'.

Barometer 983.5 mb
Water temperature 3.7 ° C

Date/timePositionNaut miles runAvg speedWind from/ knotsBaromVisibWave heightAir tempDewpointWater temp
2017-Nov-18 00:30N 44°32' W 087°59'0 0.0 983.5 3.7
2017-Nov-18 00:00N 44°32' W 087°59'0 0.0 983.9 3.8
2017-Nov-17 23:30N 44°32' W 087°59'0 0.0 983.9 3.8
2017-Nov-17 23:00N 44°32' W 087°59'0 0.0 983.6 3.7
2017-Nov-17 22:30N 44°32' W 087°59'0 0.0 984.0 3.7
2017-Nov-17 22:00N 44°32' W 087°59'0 0.0 984.4 3.5
2017-Nov-17 21:30N 44°32' W 087°59'0 0.0 984.8 3.5
2017-Nov-17 21:00N 44°32' W 087°59'0 0.0 985.2 3.7
2017-Nov-17 20:30N 44°32' W 087°59'0 0.0 985.9 3.8
2017-Nov-17 20:00N 44°32' W 087°59'0 0.0 986.5 3.7
2017-Nov-17 19:30N 44°32' W 087°59'0 0.0 987.3 3.5
2017-Nov-17 19:00N 44°32' W 087°59'0 0.0 987.9 3.5
2017-Nov-17 18:30N 44°32' W 087°59'0 0.0 989.1 3.4
2017-Nov-17 18:00N 44°32' W 087°59'0 0.0 989.9 3.3
2017-Nov-17 17:30N 44°32' W 087°59'0 0.0 991.1 3.2
2017-Nov-17 17:00N 44°32' W 087°59'0 0.0 991.8 3.2
2017-Nov-17 16:30N 44°32' W 087°59'0 0.0 991.9 3.2
2017-Nov-17 16:00N 44°32' W 087°59'0 0.0 992.7 3.0
2017-Nov-17 15:30N 44°32' W 087°59'0 0.0 993.5 2.8
2017-Nov-17 15:00N 44°32' W 087°59'0 0.0 993.5 2.7
2017-Nov-17 14:30N 44°32' W 087°59'0 0.0 994.3 2.5
2017-Nov-17 14:00N 44°32' W 087°59'0 0.0 995.5 2.5
2017-Nov-17 13:30N 44°32' W 087°59'0 0.0 995.4 2.4
2017-Nov-17 13:00N 44°32' W 087°59'0 0.0 996.3 2.4
2017-Nov-17 12:30N 44°32' W 087°59'0 0.0 997.3 2.4
2017-Nov-17 12:00N 44°32' W 087°59'0 0.0 998.0 2.4
2017-Nov-17 11:30N 44°32' W 087°59'0 0.0 998.3 2.4
2017-Nov-17 11:00N 44°32' W 087°59'0 0.0 998.8 2.4
2017-Nov-17 10:30N 44°32' W 087°59'0 0.0 998.7 2.4
2017-Nov-17 10:00N 44°32' W 087°59'0 0.0 999.9 2.3
2017-Nov-17 09:30N 44°32' W 087°59'0 0.0 1000.1 2.4
2017-Nov-17 09:00N 44°32' W 087°59'0 0.0 999.1 2.4
2017-Nov-17 08:30N 44°32' W 087°59'0 0.0 1000.0 2.5
2017-Nov-17 08:00N 44°32' W 087°59'0 0.0 1000.4 2.6
2017-Nov-17 07:30N 44°32' W 087°59'0 0.0 1001.5 2.7
2017-Nov-17 07:00N 44°32' W 087°59'0 0.0 1002.0 2.7
2017-Nov-17 06:30N 44°32' W 087°59'0 0.0 1002.2 2.7
2017-Nov-17 06:00N 44°32' W 087°59'0 0.0 1002.2 2.8
2017-Nov-17 05:30N 44°32' W 087°59'0 0.0 1002.2 2.7
2017-Nov-17 05:00N 44°32' W 087°59'0 0.0 1002.0 2.7
2017-Nov-17 04:30N 44°32' W 087°59'0 0.0 1001.7 2.6
2017-Nov-17 04:00N 44°32' W 087°59'0 0.0 1001.9 2.6
2017-Nov-17 03:00N 44°32' W 087°59'0 0.0 1003.0 2.6
2017-Nov-17 02:30N 44°32' W 087°59'0 0.0 1003.0 2.6
2017-Nov-17 02:00N 44°32' W 087°59'0 0.0 1003.7 2.8
2017-Nov-17 01:30N 44°32' W 087°59'0 0.0 1003.9 2.8
2017-Nov-17 01:00N 44°32' W 087°59'0 0.0 1003.7 2.7
2017-Nov-17 00:30N 44°32' W 087°59'0 0.0 1003.5 2.4
2017-Nov-17 00:00N 44°32' W 087°59'0 0.0 1003.7 2.5
2017-Nov-16 23:30N 44°32' W 087°59'0 0.0 1003.4 2.6
2017-Nov-16 23:00N 44°32' W 087°59'0 0.0 1003.2 2.7
2017-Nov-16 22:30N 44°32' W 087°59'0 0.0 1003.2 2.7
2017-Nov-16 22:00N 44°32' W 087°59'0 0.0 1003.0 2.7
2017-Nov-16 21:30N 44°32' W 087°59'0 0.0 1003.0 3.1
2017-Nov-16 21:00N 44°32' W 087°59'0 0.0 1002.5 3.3
2017-Nov-16 20:30N 44°32' W 087°59'0 0.0 1002.7 3.3
2017-Nov-16 20:00N 44°32' W 087°59'0 0.0 1002.5 3.2
2017-Nov-16 19:30N 44°32' W 087°59'0 0.0 1002.4 3.0
2017-Nov-16 19:00N 44°32' W 087°59'0 0.0 1002.5 2.7
2017-Nov-16 18:30N 44°32' W 087°59'0 0.0 1002.6 2.4
2017-Nov-16 18:00N 44°32' W 087°59'0 0.0 1002.7 2.4
2017-Nov-16 17:30N 44°32' W 087°59'0 0.0 1002.6 2.4
2017-Nov-16 17:00N 44°32' W 087°59'0 0.0 1002.4 2.1
2017-Nov-16 16:30N 44°32' W 087°59'0 0.0 1002.4 2.0
2017-Nov-16 16:00N 44°32' W 087°59'0 0.0 1001.8 1.9
2017-Nov-16 15:30N 44°32' W 087°59'0 0.0 1001.2 2.0
2017-Nov-16 15:00N 44°32' W 087°59'0 0.0 1000.9 2.0
2017-Nov-16 14:30N 44°32' W 087°59'0 0.0 1000.5 2.0
2017-Nov-16 14:00N 44°32' W 087°59'0 0.0 1000.1 2.1
2017-Nov-16 13:30N 44°32' W 087°59'0 0.0 999.5 2.1
2017-Nov-16 13:00N 44°32' W 087°59'0 0.0 998.9 2.4
2017-Nov-16 12:30N 44°32' W 087°59'0 0.0 998.3 2.4
2017-Nov-16 12:00N 44°32' W 087°59'0 0.0 997.8 2.5
2017-Nov-16 11:30N 44°32' W 087°59'0 0.0 997.3 2.6
2017-Nov-16 11:00N 44°32' W 087°59'0 0.0 996.7 2.7
2017-Nov-16 10:30N 44°32' W 087°59'0 0.0 996.3 2.7
2017-Nov-16 10:00N 44°32' W 087°59'0 0.0 995.6 2.6
2017-Nov-16 09:30N 44°32' W 087°59'0 0.0 995.1 2.6
2017-Nov-16 09:00N 44°32' W 087°59'0 0.0 994.5 2.7
2017-Nov-16 08:30N 44°32' W 087°59'0 0.0 993.9 2.7
2017-Nov-16 08:00N 44°32' W 087°59'0 0.0 993.4 2.7
2017-Nov-16 07:30N 44°32' W 087°59'0 0.0 992.7 2.9
2017-Nov-16 07:00N 44°32' W 087°59'0 0.0 992.3 3.0
2017-Nov-16 06:30N 44°32' W 087°59'0 0.0 991.7 3.0
2017-Nov-16 06:00N 44°32' W 087°59'0 0.0 991.4 3.0
2017-Nov-16 05:30N 44°32' W 087°59'0 0.0 990.8 3.1
2017-Nov-16 05:00N 44°32' W 087°59'0 0.0 990.5 1.9
2017-Nov-16 04:30N 44°32' W 087°59'0 0.0 990.0 2.1
2017-Nov-16 04:00N 44°32' W 087°59'0 0.0 989.8 2.1
2017-Nov-16 03:30N 44°32' W 087°59'0 0.0 989.5 2.4
2017-Nov-16 03:00N 44°32' W 087°59'0 0.0 989.0 3.7
2017-Nov-16 02:30N 44°32' W 087°59'0 0.0 988.7 4.3
2017-Nov-16 02:00N 44°32' W 087°59'0 0.0 988.4 4.5
2017-Nov-16 01:30N 44°32' W 087°59'0 0.0 988.0 4.6
2017-Nov-16 01:00N 44°32' W 087°59'0 0.0 987.6 4.5
2017-Nov-16 00:30N 44°32' W 087°59'0 0.0 987.0 4.5
2017-Nov-16 00:00N 44°32' W 087°59'0 0.0 986.4 4.9
2017-Nov-15 23:30N 44°32' W 087°59'0 0.0 985.6 4.9
2017-Nov-15 23:00N 44°32' W 087°59'0 0.0 985.0 4.9
2017-Nov-15 22:30N 44°32' W 087°59'0 0.0 984.8 4.9
2017-Nov-15 22:00N 44°32' W 087°59'0 0.0 984.5 5.1
2017-Nov-15 21:30N 44°32' W 087°59'0 0.0 984.3 5.0
2017-Nov-15 21:00N 44°32' W 087°59'0 0.0 983.9 5.0
2017-Nov-15 20:30N 44°32' W 087°59'0 0.0 983.5 5.0
2017-Nov-15 20:00N 44°32' W 087°59'0 0.0 983.3 4.9
2017-Nov-15 19:30N 44°32' W 087°59'0 0.0 983.0 4.9
2017-Nov-15 19:00N 44°32' W 087°59'0 0.0 982.9 4.7
2017-Nov-15 18:30N 44°32' W 087°59'0 0.0 983.0 4.5
2017-Nov-15 18:00N 44°32' W 087°59'0 0.0 983.2 4.4
2017-Nov-15 17:30N 44°32' W 087°59'0 0.0 983.5 4.3
2017-Nov-15 17:00N 44°32' W 087°59'0 0.0 984.0 4.1
2017-Nov-15 14:00N 44°32' W 087°59'0 0.0 986.2 4.1
2017-Nov-15 13:30N 44°32' W 087°59'0 0.0 986.5 4.1
2017-Nov-15 13:00N 44°32' W 087°59'0 0.0 986.5 4.1
2017-Nov-15 12:30N 44°32' W 087°59'0 0.0 986.6 4.0
2017-Nov-15 12:00N 44°32' W 087°59'0 0.0 987.2 4.1
2017-Nov-15 11:30N 44°32' W 087°59'0 0.0 987.2 4.0
2017-Nov-15 11:00N 44°32' W 087°59'0 0.0 987.6 4.0
2017-Nov-15 10:30N 44°32' W 087°59'0 0.0 988.1 3.9
2017-Nov-15 10:00N 44°32' W 087°59'0 0.0 988.6 3.9
2017-Nov-15 09:30N 44°32' W 087°59'0 0.0 989.0 3.9
2017-Nov-15 09:00N 44°32' W 087°59'0 0.0 989.6 3.8
2017-Nov-15 08:30N 44°32' W 087°59'0 0.0 990.1 3.7
2017-Nov-15 08:00N 44°32' W 087°59'0 0.0 990.2 3.7
2017-Nov-15 07:30N 44°32' W 087°59'0 0.0 990.9 3.6
2017-Nov-15 07:00N 44°32' W 087°59'0 0.0 991.6 3.5
2017-Nov-15 06:30N 44°32' W 087°59'0 0.0 992.1 2.9
2017-Nov-15 06:00N 44°32' W 087°59'0 0.0 992.7 3.0
2017-Nov-15 05:30N 44°32' W 087°59'0 0.0 992.8 3.1
2017-Nov-15 05:00N 44°32' W 087°59'0 0.0 993.3 3.1
2017-Nov-15 04:30N 44°32' W 087°59'0 0.0 993.8 3.1
2017-Nov-15 04:00N 44°32' W 087°59'0 0.0 993.9 2.9
2017-Nov-15 03:30N 44°32' W 087°59'0 0.0 994.1 2.7
2017-Nov-15 03:00N 44°32' W 087°59'0 0.0 994.1 2.4
2017-Nov-15 02:30N 44°32' W 087°59'0 0.0 994.5 2.3
2017-Nov-15 02:00N 44°32' W 087°59'0 0.0 994.6 2.4
2017-Nov-15 01:30N 44°32' W 087°59'0 0.0 994.8 2.6
2017-Nov-15 01:00N 44°32' W 087°59'0 0.0 995.2 2.7
2017-Nov-15 00:30N 44°32' W 087°59'0 0.0 995.3 2.9
2017-Nov-15 00:00N 44°32' W 087°59'0 0.0 995.7 3.0
2017-Nov-14 23:30N 44°32' W 087°59'0 0.0 995.9 2.9
2017-Nov-14 23:00N 44°32' W 087°59'0 0.0 996.1 3.1
2017-Nov-14 22:30N 44°32' W 087°59'0 0.0 996.4 3.1
2017-Nov-14 22:00N 44°32' W 087°59'0 0.0 996.4 3.0
2017-Nov-14 21:30N 44°32' W 087°59'0 0.0 996.8 3.1
2017-Nov-14 21:00N 44°32' W 087°59'0 0.0 997.1 3.1
2017-Nov-14 20:30N 44°32' W 087°59'0 0.0 997.3 3.0
2017-Nov-14 20:00N 44°32' W 087°59'0 0.0 997.5 2.8
2017-Nov-14 19:30N 44°32' W 087°59'0 0.0 998.2 2.7
2017-Nov-14 19:00N 44°32' W 087°59'0 0.0 998.6 2.5
2017-Nov-14 18:30N 44°32' W 087°59'0 0.0 999.2 2.2
2017-Nov-14 18:00N 44°32' W 087°59'0 0.0 999.5 1.9
2017-Nov-14 17:30N 44°32' W 087°59'0 0.0 1000.0 1.8
2017-Nov-14 17:00N 44°32' W 087°59'0 0.0 1000.6 1.8
2017-Nov-14 16:30N 44°32' W 087°59'0 0.0 1001.2 1.9
2017-Nov-14 16:00N 44°32' W 087°59'0 0.0 1001.4 2.0
2017-Nov-14 15:30N 44°32' W 087°59'0 0.0 1001.8 1.6
2017-Nov-14 15:00N 44°32' W 087°59'0 0.0 1002.0 1.6
2017-Nov-14 14:30N 44°32' W 087°59'0 0.0 1002.5 1.5
2017-Nov-14 14:00N 44°32' W 087°59'0 0.0 1002.7 1.6
2017-Nov-14 13:30N 44°32' W 087°59'0 0.0 1002.7 1.7
2017-Nov-14 13:00N 44°32' W 087°59'0 0.0 1002.6 1.8
2017-Nov-14 12:30N 44°32' W 087°59'0 0.0 1003.0 2.1
2017-Nov-14 12:00N 44°32' W 087°59'0 0.0 1003.2 2.2
2017-Nov-14 11:30N 44°32' W 087°59'0 0.0 1003.7 2.1
2017-Nov-14 11:00N 44°32' W 087°59'0 0.0 1004.0 1.6
2017-Nov-14 10:30N 44°32' W 087°59'0 0.0 1004.0 1.5
2017-Nov-14 10:00N 44°32' W 087°59'0 0.0 1004.0 1.5
2017-Nov-14 09:30N 44°32' W 087°59'0 0.0 1004.5 1.6
2017-Nov-14 09:00N 44°32' W 087°59'0 0.0 1004.8 1.6
2017-Nov-14 08:30N 44°32' W 087°59'0 0.0 1005.0 1.6
2017-Nov-14 08:00N 44°32' W 087°59'0 0.0 1005.1 1.5
2017-Nov-14 07:30N 44°32' W 087°59'0 0.0 1004.8 1.6
2017-Nov-14 07:00N 44°32' W 087°59'0 0.0 1004.9 1.4
2017-Nov-14 06:30N 44°32' W 087°59'0 0.0 1005.0 1.7
2017-Nov-14 06:00N 44°32' W 087°59'0 0.0 1005.3 1.7
2017-Nov-14 05:30N 44°32' W 087°59'0 0.0 1005.4 1.8
2017-Nov-14 05:00N 44°32' W 087°59'0 0.0 1005.5 1.7
2017-Nov-14 04:30N 44°32' W 087°59'0 0.0 1005.7 1.8
2017-Nov-14 04:00N 44°32' W 087°59'0 0.0 1005.9 1.8
2017-Nov-14 03:30N 44°32' W 087°59'0 0.0 1006.1 1.9
2017-Nov-14 03:00N 44°32' W 087°59'0 0.0 1006.2 2.0
2017-Nov-14 02:30N 44°32' W 087°59'0 0.0 1006.3 2.1
2017-Nov-14 02:00N 44°32' W 087°59'0 0.0 1006.5 2.1
2017-Nov-14 01:30N 44°32' W 087°59'0 0.0 1006.6 2.1
2017-Nov-14 01:00N 44°32' W 087°59'0 0.0 1006.7 2.2
2017-Nov-14 00:30N 44°32' W 087°59'0 0.0 1006.8 2.1
2017-Nov-14 00:00N 44°32' W 087°59'0 0.0 1006.9 2.0
2017-Nov-13 23:30N 44°32' W 087°59'0 0.0 1007.2 2.2
2017-Nov-13 23:00N 44°32' W 087°59'0 0.0 1007.1 2.3
2017-Nov-13 22:30N 44°32' W 087°59'0 0.0 1007.1 2.6
2017-Nov-13 22:00N 44°32' W 087°59'0 0.0 1007.6 2.7
2017-Nov-13 21:30N 44°32' W 087°59'0 0.0 1007.7 2.7
2017-Nov-13 21:00N 44°32' W 087°59'0 0.0 1007.6 2.8
2017-Nov-13 20:30N 44°32' W 087°59'0 0.0 1007.9 2.6
2017-Nov-13 20:00N 44°32' W 087°59'0 0.0 1008.3 2.4
2017-Nov-13 19:30N 44°32' W 087°59'0 0.0 1008.7 2.4
2017-Nov-13 19:00N 44°32' W 087°59'0 0.0 1008.8 2.4
2017-Nov-13 18:30N 44°32' W 087°59'0 0.0 1009.1 2.1
2017-Nov-13 18:00N 44°32' W 087°59'0 0.0 1009.4 1.9
2017-Nov-13 17:30N 44°32' W 087°59'0 0.0 1009.7 1.8
2017-Nov-13 17:00N 44°32' W 087°59'0 0.0 1009.7 1.9
2017-Nov-13 16:30N 44°32' W 087°59'0 0.0 1009.8 1.7
2017-Nov-13 16:00N 44°32' W 087°59'0 0.0 1009.7 1.7
2017-Nov-13 15:30N 44°32' W 087°59'0 0.0 1009.7 1.7
2017-Nov-13 15:00N 44°32' W 087°59'0 0.0 1009.6 1.7
2017-Nov-13 14:30N 44°32' W 087°59'0 0.0 1009.6 1.8
2017-Nov-13 14:00N 44°32' W 087°59'0 0.0 1009.4 1.8
2017-Nov-13 13:30N 44°32' W 087°59'0 0.0 1009.0 1.8
2017-Nov-13 13:00N 44°32' W 087°59'0 0.0 1008.8 1.9
2017-Nov-13 12:30N 44°32' W 087°59'0 0.0 1008.4 2.0
2017-Nov-13 12:00N 44°32' W 087°59'0 0.0 1008.5 2.0
2017-Nov-13 11:30N 44°32' W 087°59'0 0.0 1008.4 1.8
2017-Nov-13 11:00N 44°32' W 087°59'0 0.0 1008.2 1.9
2017-Nov-13 10:30N 44°32' W 087°59'0 0.0 1007.9 2.0
2017-Nov-13 10:00N 44°32' W 087°59'0 0.0 1007.8 2.2
2017-Nov-13 09:30N 44°32' W 087°59'0 0.0 1007.6 2.2
2017-Nov-13 09:00N 44°32' W 087°59'0 0.0 1007.6 2.2
2017-Nov-13 08:30N 44°32' W 087°59'0 0.0 1007.6 2.3
2017-Nov-13 08:00N 44°32' W 087°59'0 0.0 1007.9 2.4
2017-Nov-13 07:30N 44°32' W 087°59'0 0.0 1007.5 2.0
2017-Nov-13 07:00N 44°32' W 087°59'0 0.0 1007.4 1.5
2017-Nov-13 06:30N 44°32' W 087°59'0 0.0 1007.6 1.5
2017-Nov-13 06:00N 44°32' W 087°59'0 0.0 1007.7 1.5
2017-Nov-13 05:30N 44°32' W 087°59'0 0.0 1007.3 1.7
2017-Nov-13 05:00N 44°32' W 087°59'0 0.0 1007.2 1.7
2017-Nov-13 04:30N 44°32' W 087°59'0 0.0 1007.4 1.6
2017-Nov-13 04:00N 44°32' W 087°59'0 0.0 1007.3 1.7
2017-Nov-13 03:30N 44°32' W 087°59'0 0.0 1007.2 1.7
2017-Nov-13 03:00N 44°32' W 087°59'0 0.0 1007.0 1.9
2017-Nov-13 02:30N 44°32' W 087°59'0 0.0 1007.0 2.4
2017-Nov-13 02:00N 44°32' W 087°59'0 0.0 1006.9 2.3
2017-Nov-13 01:30N 44°32' W 087°59'0 0.0 1006.7 2.7
2017-Nov-13 01:00N 44°32' W 087°59'0 0.0 1006.7 2.6
2017-Nov-13 00:30N 44°32' W 087°59'0 0.0 1006.8 2.7
2017-Nov-13 00:00N 44°32' W 087°59'0 0.0 1006.5 2.5
2017-Nov-12 23:30N 44°32' W 087°59'0 0.0 1006.3 2.6
2017-Nov-12 23:00N 44°32' W 087°59'0 0.0 1006.2 2.7
2017-Nov-12 22:30N 44°32' W 087°59'0 0.0 1006.0 2.8
2017-Nov-12 22:00N 44°32' W 087°59'0 0.0 1005.8 2.6
2017-Nov-12 21:30N 44°32' W 087°59'0 0.0 1005.7 2.2
2017-Nov-12 21:00N 44°32' W 087°59'0 0.0 1005.6 2.0
2017-Nov-12 20:30N 44°32' W 087°59'0 0.0 1005.5 1.6
2017-Nov-12 20:00N 44°32' W 087°59'0 0.0 1005.6 1.1
2017-Nov-12 19:30N 44°32' W 087°59'0 0.0 1005.7 1.1
2017-Nov-12 19:00N 44°32' W 087°59'0 0.0 1005.8 1.2
2017-Nov-12 18:30N 44°32' W 087°59'0 0.0 1005.9 1.2
2017-Nov-12 18:00N 44°32' W 087°59'0 0.0 1006.1 1.2
2017-Nov-12 17:30N 44°32' W 087°59'0 0.0 1006.2 1.1
2017-Nov-12 17:00N 44°32' W 087°59'0 0.0 1006.5 1.0
2017-Nov-12 16:30N 44°32' W 087°59'0 0.0 1006.4 1.2
2017-Nov-12 16:00N 44°32' W 087°59'0 0.0 1006.3 1.4
2017-Nov-12 15:30N 44°32' W 087°59'0 0.0 1006.1 1.3
2017-Nov-12 15:00N 44°32' W 087°59'0 0.0 1006.1 1.2
2017-Nov-12 14:30N 44°32' W 087°59'0 0.0 1006.0 1.1
2017-Nov-12 14:00N 44°32' W 087°59'0 0.0 1005.8 1.0
2017-Nov-12 13:30N 44°32' W 087°59'0 0.0 1005.6 0.8
2017-Nov-12 13:00N 44°32' W 087°59'0 0.0 1005.5 0.7
2017-Nov-12 12:30N 44°32' W 087°59'0 0.0 1005.2 0.8
2017-Nov-12 12:00N 44°32' W 087°59'0 0.0 1005.2 0.8
2017-Nov-12 11:30N 44°32' W 087°59'0 0.0 1005.0 0.9
2017-Nov-12 11:00N 44°32' W 087°59'0 0.0 1004.6 0.7
2017-Nov-12 10:30N 44°32' W 087°59'0 0.0 1004.5 0.9
2017-Nov-12 10:00N 44°32' W 087°59'0 0.0 1004.4 0.9
2017-Nov-12 09:30N 44°32' W 087°59'0 0.0 1004.4 0.9
2017-Nov-12 09:00N 44°32' W 087°59'0 0.0 1004.3 0.9
2017-Nov-12 08:30N 44°32' W 087°59'0 0.0 1004.2 0.9
2017-Nov-12 08:00N 44°32' W 087°59'0 0.0 1004.2 0.9
2017-Nov-12 07:30N 44°32' W 087°59'0 0.0 1004.0 0.8
2017-Nov-12 06:30N 44°32' W 087°59'0 0.0 1003.8 0.9
2017-Nov-12 06:00N 44°32' W 087°59'0 0.0 1003.7 0.9
2017-Nov-12 05:30N 44°32' W 087°59'0 0.0 1003.7 0.9
2017-Nov-12 05:00N 44°32' W 087°59'0 0.0 1003.7 0.8
2017-Nov-12 04:30N 44°32' W 087°59'0 0.0 1003.6 0.8
2017-Nov-12 04:00N 44°32' W 087°59'0 0.0 1003.4 1.0
2017-Nov-12 03:30N 44°32' W 087°59'0 0.0 1003.3 1.2
2017-Nov-12 03:00N 44°32' W 087°59'0 0.0 1003.0 1.2
2017-Nov-12 02:30N 44°32' W 087°59'0 0.0 1002.9 1.1
2017-Nov-12 02:00N 44°32' W 087°59'0 0.0 1002.8 1.0
2017-Nov-12 01:30N 44°32' W 087°59'0 0.0 1002.8 0.9
2017-Nov-12 01:00N 44°32' W 087°59'0 0.0 1002.7 0.9
2017-Nov-12 00:30N 44°32' W 087°59'0 0.0 1002.7 0.9
2017-Nov-12 00:00N 44°32' W 087°59'0 0.0 1002.5 0.9
2017-Nov-11 23:30N 44°32' W 087°59'0 0.0 1002.2 0.9
2017-Nov-11 23:00N 44°32' W 087°59'0 0.0 1002.0 1.1
2017-Nov-11 22:30N 44°32' W 087°59'0 0.0 1002.1 1.1
2017-Nov-11 22:00N 44°32' W 087°59'0 0.0 1001.9 1.1
2017-Nov-11 21:30N 44°32' W 087°59'0 0.0 1001.9 1.1
2017-Nov-11 21:00N 44°32' W 087°59'0 0.0 1002.0 1.1
2017-Nov-11 20:30N 44°32' W 087°59'0 0.0 1002.2 1.1
2017-Nov-11 20:00N 44°32' W 087°59'0 0.0 1002.1 1.1
2017-Nov-11 19:30N 44°32' W 087°59'0 0.0 1002.6 1.1
2017-Nov-11 19:00N 44°32' W 087°59'0 0.0 1002.9 1.0
2017-Nov-11 18:30N 44°32' W 087°59'0 0.0 1003.4 0.9
2017-Nov-11 18:00N 44°32' W 087°59'0 0.0 1003.7 0.8
2017-Nov-11 17:30N 44°32' W 087°59'0 0.0 1004.3 0.8
2017-Nov-11 17:00N 44°32' W 087°59'0 0.0 1004.7 0.8
2017-Nov-11 16:30N 44°32' W 087°59'0 0.0 1005.2 0.8
2017-Nov-11 16:00N 44°32' W 087°59'0 0.0 1005.5 0.9
2017-Nov-11 15:30N 44°32' W 087°59'0 0.0 1005.8 0.9
2017-Nov-11 15:00N 44°32' W 087°59'0 0.0 1005.8 0.8
2017-Nov-11 14:30N 44°32' W 087°59'0 0.0 1006.2 0.8
2017-Nov-11 14:00N 44°32' W 087°59'0 0.0 1006.7 0.7
2017-Nov-11 13:30N 44°32' W 087°59'0 0.0 1006.8 0.7
2017-Nov-11 13:00N 44°32' W 087°59'0 0.0 1006.7 0.7
2017-Nov-11 12:30N 44°32' W 087°59'0 0.0 1007.0 0.7
2017-Nov-11 12:00N 44°32' W 087°59'0 0.0 1007.1 0.7
2017-Nov-11 11:30N 44°32' W 087°59'0 0.0 1007.1 0.8
2017-Nov-11 11:00N 44°32' W 087°59'0 0.0 1007.5 0.8
2017-Nov-11 10:30N 44°32' W 087°59'0 0.0 1007.5 0.8
2017-Nov-11 10:00N 44°32' W 087°59'0 0.0 1007.8 0.9
2017-Nov-11 09:30N 44°32' W 087°59'0 0.0 1007.8 0.8
2017-Nov-11 09:00N 44°32' W 087°59'0 0.0 1008.6 0.7
2017-Nov-11 08:30N 44°32' W 087°59'0 0.0 1008.9 0.9
2017-Nov-11 08:00N 44°32' W 087°59'0 0.0 1008.9 0.9
2017-Nov-11 07:00N 44°32' W 087°59'0 0.0 1008.8 0.7
2017-Nov-11 06:30N 44°32' W 087°59'0 0.0 1009.1 0.7
2017-Nov-11 06:00N 44°32' W 087°59'0 0.0 1009.4 0.8
2017-Nov-11 05:30N 44°32' W 087°59'0 0.0 1009.9 0.9
2017-Nov-11 05:00N 44°32' W 087°59'0 0.0 1010.1 0.9
2017-Nov-11 04:30N 44°32' W 087°59'0 0.0 1010.5 0.9
2017-Nov-11 04:00N 44°32' W 087°59'0 0.0 1011.1 0.9
2017-Nov-11 03:30N 44°32' W 087°59'0 0.0 1011.5 1.0
2017-Nov-11 03:00N 44°32' W 087°59'0 0.0 1011.9 1.0
2017-Nov-11 02:30N 44°32' W 087°59'0 0.0 1011.8 0.8
2017-Nov-11 02:00N 44°32' W 087°59'0 0.0 1012.5 0.8
2017-Nov-11 01:30N 44°32' W 087°59'0 0.0 1012.9 0.8
2017-Nov-11 01:00N 44°32' W 087°59'0 0.0 1013.1 1.0
2017-Nov-11 00:30N 44°32' W 087°59'0 0.0 1013.1 1.1
2017-Nov-11 00:00N 44°32' W 087°59'0 0.0 1013.1 1.1
2017-Nov-10 23:30N 44°32' W 087°59'0 0.0 1013.4 1.2
2017-Nov-10 23:00N 44°32' W 087°59'0 0.0 1013.3 1.2
2017-Nov-10 22:30N 44°32' W 087°59'0 0.0 1013.6 1.3
2017-Nov-10 22:00N 44°32' W 087°59'0 0.0 1013.6 1.4
2017-Nov-10 21:30N 44°32' W 087°59'0 0.0 1014.0 1.4
2017-Nov-10 21:00N 44°32' W 087°59'0 0.0 1014.2 1.6
2017-Nov-10 20:30N 44°32' W 087°59'0 0.0 1014.4 1.5
2017-Nov-10 20:00N 44°32' W 087°59'0 0.0 1014.4 1.2
2017-Nov-10 19:30N 44°32' W 087°59'0 0.0 1014.8 1.0
2017-Nov-10 19:00N 44°32' W 087°59'0 0.0 1015.1 0.7
2017-Nov-10 18:30N 44°32' W 087°59'0 0.0 1015.5 0.4
2017-Nov-10 18:00N 44°32' W 087°59'0 0.0 1015.8 0.3
2017-Nov-10 17:30N 44°32' W 087°59'0 0.0 1016.2 0.3
2017-Nov-10 17:00N 44°32' W 087°59'0 0.0 1016.5 0.3
2017-Nov-10 16:30N 44°32' W 087°59'0 0.0 1016.9 0.3
2017-Nov-10 16:00N 44°32' W 087°59'0 0.0 1016.9 0.2
2017-Nov-10 15:30N 44°32' W 087°59'0 0.0 1017.2 0.1
2017-Nov-10 15:00N 44°32' W 087°59'0 0.0 1017.0 -0.0
2017-Nov-10 14:30N 44°32' W 087°59'0 0.0 1017.1 -0.0
2017-Nov-10 14:00N 44°32' W 087°59'0 0.0 1016.9 0.1
2017-Nov-10 13:30N 44°32' W 087°59'0 0.0 1016.6 0.1
2017-Nov-10 13:00N 44°32' W 087°59'0 0.0 1016.1 0.1
2017-Nov-10 12:30N 44°32' W 087°59'0 0.0 1015.7 -0.0
2017-Nov-10 12:00N 44°32' W 087°59'0 0.0 1015.4 -0.0
2017-Nov-10 11:30N 44°32' W 087°59'0 0.0 1015.3 0.1
2017-Nov-10 11:00N 44°32' W 087°59'0 0.0 1015.1 -0.0
2017-Nov-10 10:30N 44°32' W 087°59'0 0.0 1015.0 -0.0
2017-Nov-10 10:00N 44°32' W 087°59'0 0.0 1014.8 -0.0
2017-Nov-10 09:30N 44°32' W 087°59'0 0.0 1014.4 -0.0
2017-Nov-10 09:00N 44°32' W 087°59'0 0.0 1014.0 -0.0
2017-Nov-10 08:30N 44°32' W 087°59'0 0.0 1013.6 -0.0
2017-Nov-10 08:00N 44°32' W 087°59'0 0.0 1013.0 -0.1
2017-Nov-10 07:30N 44°32' W 087°59'0 0.0 1012.5 -0.0
2017-Nov-10 07:00N 44°32' W 087°59'0 0.0 1012.1 0.1
2017-Nov-10 06:30N 44°32' W 087°59'0 0.0 1011.7 0.1
2017-Nov-10 06:00N 44°32' W 087°59'0 0.0 1011.3 -0.0
2017-Nov-10 05:30N 44°32' W 087°59'0 0.0 1010.9 0.1
2017-Nov-10 05:00N 44°32' W 087°59'0 0.0 1010.4 0.2
2017-Nov-10 04:30N 44°32' W 087°59'0 0.0 1010.2 0.1
2017-Nov-10 04:00N 44°32' W 087°59'0 0.0 1010.2 0.1
2017-Nov-10 03:30N 44°32' W 087°59'0 0.0 1009.9 -0.0
2017-Nov-10 03:00N 44°32' W 087°59'0 0.0 1009.7 0.1
2017-Nov-10 02:30N 44°32' W 087°59'0 0.0 1009.1 -0.0
2017-Nov-10 02:00N 44°32' W 087°59'0 0.0 1008.7 -0.0
2017-Nov-10 01:30N 44°32' W 087°59'0 0.0 1008.3 -0.0
2017-Nov-10 01:00N 44°32' W 087°59'0 0.0 1007.8 -0.0
2017-Nov-10 00:30N 44°32' W 087°59'0 0.0 1007.3 -0.0
2017-Nov-10 00:00N 44°32' W 087°59'0 0.0 1006.8 -0.0
2017-Nov-09 23:30N 44°32' W 087°59'0 0.0 1006.3 -0.0
2017-Nov-09 23:00N 44°32' W 087°59'0 0.0 1005.8 0.1
2017-Nov-09 22:30N 44°32' W 087°59'0 0.0 1005.0 0.2
2017-Nov-09 22:00N 44°32' W 087°59'0 0.0 1004.0 -0.8
2017-Nov-09 21:30N 44°32' W 087°59'0 0.0 1003.0 0.1
2017-Nov-09 21:00N 44°32' W 087°59'0 0.0 1002.2 -0.1
2017-Nov-09 20:30N 44°32' W 087°59'0 0.0 1001.3 -0.0
2017-Nov-09 20:00N 44°32' W 087°59'0 0.0 1000.8 -0.0
2017-Nov-09 19:30N 44°32' W 087°59'0 0.0 1000.1 2.3
2017-Nov-09 19:00N 44°32' W 087°59'0 0.0 999.7 2.3
2017-Nov-09 18:30N 44°32' W 087°59'0 0.0 999.3 2.3
2017-Nov-09 18:00N 44°32' W 087°59'0 0.0 998.9 2.4
2017-Nov-09 17:30N 44°32' W 087°59'0 0.0 998.5 2.7
2017-Nov-09 17:00N 44°32' W 087°59'0 0.0 998.3 2.3
2017-Nov-09 16:30N 44°32' W 087°59'0 0.0 998.0 2.3
2017-Nov-09 16:00N 44°32' W 087°59'0 0.0 997.5 2.2
2017-Nov-09 15:30N 44°32' W 087°59'0 0.0 997.3 2.1
2017-Nov-09 15:00N 44°32' W 087°59'0 0.0 997.1 2.2
2017-Nov-09 14:30N 44°32' W 087°59'0 0.0 996.7 2.5
2017-Nov-09 14:00N 44°32' W 087°59'0 0.0 996.4 2.7
2017-Nov-09 13:30N 44°32' W 087°59'0 0.0 995.7 2.8
2017-Nov-09 13:00N 44°32' W 087°59'0 0.0 995.2 2.9
2017-Nov-09 12:30N 44°32' W 087°59'0 0.0 995.0 3.0
2017-Nov-09 12:00N 44°32' W 087°59'0 0.0 994.6 3.1
2017-Nov-09 11:30N 44°32' W 087°59'0 0.0 994.5 3.2
2017-Nov-09 11:00N 44°32' W 087°59'0 0.0 994.0 3.0
2017-Nov-09 10:30N 44°32' W 087°59'0 0.0 993.8 2.8
2017-Nov-09 10:00N 44°32' W 087°59'0 0.0 994.0 3.1
2017-Nov-09 09:30N 44°32' W 087°59'0 0.0 993.8 3.1
2017-Nov-09 09:00N 44°32' W 087°59'0 0.0 994.0 3.1
2017-Nov-09 08:30N 44°32' W 087°59'0 0.0 994.5 3.1
2017-Nov-09 08:00N 44°32' W 087°59'0 0.0 994.5 2.9
2017-Nov-09 07:30N 44°32' W 087°59'0 0.0 995.3 2.8
2017-Nov-09 07:00N 44°32' W 087°59'0 0.0 995.9 2.8
2017-Nov-09 06:30N 44°32' W 087°59'0 0.0 996.4 2.8
2017-Nov-09 06:00N 44°32' W 087°59'0 0.0 996.8 2.8
2017-Nov-09 05:30N 44°32' W 087°59'0 0.0 997.3 2.8
2017-Nov-09 05:00N 44°32' W 087°59'0 0.0 997.4 2.8
2017-Nov-09 04:30N 44°32' W 087°59'0 0.0 997.8 2.7
2017-Nov-09 04:00N 44°32' W 087°59'0 0.0 998.4 2.7
2017-Nov-09 03:30N 44°32' W 087°59'0 0.0 998.6 2.6
2017-Nov-09 03:00N 44°32' W 087°59'0 0.0 998.6 2.6
2017-Nov-09 02:30N 44°32' W 087°59'0 0.0 999.0 2.5
2017-Nov-09 02:00N 44°32' W 087°59'0 0.0 999.2 2.4
2017-Nov-09 01:30N 44°32' W 087°59'0 0.0 999.5 2.5
2017-Nov-09 01:00N 44°32' W 087°59'0 0.0 999.8 2.9
2017-Nov-09 00:30N 44°32' W 087°59'0 0.0 1000.2 3.1
2017-Nov-09 00:00N 44°32' W 087°59'0 0.0 1000.1 3.3
2017-Nov-08 23:30N 44°32' W 087°59'0 0.0 1000.0 3.7
2017-Nov-08 22:30N 44°32' W 087°59'0 0.0 1000.1 3.7
2017-Nov-08 22:00N 44°32' W 087°59'0 0.0 1000.1 4.0
2017-Nov-08 21:30N 44°32' W 087°59'0 0.0 1000.3 3.8
2017-Nov-08 21:00N 44°32' W 087°59'0 0.0 1000.6 4.1
2017-Nov-08 20:30N 44°32' W 087°59'0 0.0 1000.8 4.2
2017-Nov-08 20:00N 44°32' W 087°59'0 0.0 1001.1 4.3
2017-Nov-08 19:30N 44°32' W 087°59'0 0.0 1001.2 4.1
2017-Nov-08 19:00N 44°32' W 087°59'0 0.0 1001.7 3.9
2017-Nov-08 18:30N 44°32' W 087°59'0 0.0 1002.2 3.6
2017-Nov-08 18:00N 44°32' W 087°59'0 0.0 1002.6 3.1
2017-Nov-08 17:30N 44°32' W 087°59'0 0.0 1003.1 3.0
2017-Nov-08 17:00N 44°32' W 087°59'0 0.0 1003.8 2.8
2017-Nov-08 16:30N 44°32' W 087°59'0 0.0 1004.0 2.4
2017-Nov-08 16:00N 44°32' W 087°59'0 0.0 1003.9 2.3
2017-Nov-08 15:30N 44°32' W 087°59'0 0.0 1003.9 2.1
2017-Nov-08 15:00N 44°32' W 087°59'0 0.0 1003.9 1.9
2017-Nov-08 14:30N 44°32' W 087°59'0 0.0 1003.9 1.8
2017-Nov-08 14:00N 44°32' W 087°59'0 0.0 1003.9 1.7
2017-Nov-08 13:30N 44°32' W 087°59'0 0.0 1004.0 1.6
2017-Nov-08 13:00N 44°32' W 087°59'0 0.0 1004.0 1.7
2017-Nov-08 12:30N 44°32' W 087°59'0 0.0 1003.9 1.7
2017-Nov-08 12:00N 44°32' W 087°59'0 0.0 1004.0 1.6
2017-Nov-08 11:30N 44°32' W 087°59'0 0.0 1004.1 1.6
2017-Nov-08 11:00N 44°32' W 087°59'0 0.0 1004.2 1.6
2017-Nov-08 10:30N 44°32' W 087°59'0 0.0 1004.3 1.7
2017-Nov-08 10:00N 44°32' W 087°59'0 0.0 1004.3 2.4
2017-Nov-08 09:30N 44°32' W 087°59'0 0.0 1004.4 2.3
2017-Nov-08 09:00N 44°32' W 087°59'0 0.0 1004.6 2.8
2017-Nov-08 08:30N 44°32' W 087°59'0 0.0 1004.8 3.2
2017-Nov-08 08:00N 44°32' W 087°59'0 0.0 1004.9 3.2
2017-Nov-08 07:30N 44°32' W 087°59'0 0.0 1005.0 3.1
2017-Nov-08 07:00N 44°32' W 087°59'0 0.0 1005.2 3.2
2017-Nov-08 06:30N 44°32' W 087°59'0 0.0 1005.3 3.2
2017-Nov-08 06:00N 44°32' W 087°59'0 0.0 1005.3 3.1
2017-Nov-08 05:30N 44°32' W 087°59'0 0.0 1005.2 3.3
2017-Nov-08 05:00N 44°32' W 087°59'0 0.0 1005.1 3.3
2017-Nov-08 04:30N 44°32' W 087°59'0 0.0 1005.1 3.4
2017-Nov-08 04:00N 44°32' W 087°59'0 0.0 1005.5 3.6
2017-Nov-08 03:30N 44°32' W 087°59'0 0.0 1005.5 3.5
2017-Nov-08 01:00N 44°32' W 087°59'0 0.0 1005.7 2.9
2017-Nov-08 00:30N 44°32' W 087°59'   1005.6 4.0
Track history (hours):
 
Tides and Currents Weather Stations Pressure Air Temp Water Temp Dewpoint Dewpoint Depression Visibility Wind Speed Wind Dir Waves Ship Positions

Drifting buoy 45509

Last reported at 2017-Nov-18 00:30 UTC. Time now 2017-Nov-18 01:21 UTC.
Position N 44°32' W 087°59'.

Barometer 983.5 mb
Water temperature 3.7 ° C

Date/timePositionNaut miles runAvg speedWind from/ knotsBaromVisibWave heightAir tempDewpointWater temp
2017-Nov-18 00:30N 44°32' W 087°59'0 0.0 983.5 3.7
2017-Nov-18 00:00N 44°32' W 087°59'0 0.0 983.9 3.8
2017-Nov-17 23:30N 44°32' W 087°59'0 0.0 983.9 3.8
2017-Nov-17 23:00N 44°32' W 087°59'0 0.0 983.6 3.7
2017-Nov-17 22:30N 44°32' W 087°59'0 0.0 984.0 3.7
2017-Nov-17 22:00N 44°32' W 087°59'0 0.0 984.4 3.5
2017-Nov-17 21:30N 44°32' W 087°59'0 0.0 984.8 3.5
2017-Nov-17 21:00N 44°32' W 087°59'0 0.0 985.2 3.7
2017-Nov-17 20:30N 44°32' W 087°59'0 0.0 985.9 3.8
2017-Nov-17 20:00N 44°32' W 087°59'0 0.0 986.5 3.7
2017-Nov-17 19:30N 44°32' W 087°59'0 0.0 987.3 3.5
2017-Nov-17 19:00N 44°32' W 087°59'0 0.0 987.9 3.5
2017-Nov-17 18:30N 44°32' W 087°59'0 0.0 989.1 3.4
2017-Nov-17 18:00N 44°32' W 087°59'0 0.0 989.9 3.3
2017-Nov-17 17:30N 44°32' W 087°59'0 0.0 991.1 3.2
2017-Nov-17 17:00N 44°32' W 087°59'0 0.0 991.8 3.2
2017-Nov-17 16:30N 44°32' W 087°59'0 0.0 991.9 3.2
2017-Nov-17 16:00N 44°32' W 087°59'0 0.0 992.7 3.0
2017-Nov-17 15:30N 44°32' W 087°59'0 0.0 993.5 2.8
2017-Nov-17 15:00N 44°32' W 087°59'0 0.0 993.5 2.7
2017-Nov-17 14:30N 44°32' W 087°59'0 0.0 994.3 2.5
2017-Nov-17 14:00N 44°32' W 087°59'0 0.0 995.5 2.5
2017-Nov-17 13:30N 44°32' W 087°59'0 0.0 995.4 2.4
2017-Nov-17 13:00N 44°32' W 087°59'0 0.0 996.3 2.4
2017-Nov-17 12:30N 44°32' W 087°59'0 0.0 997.3 2.4
2017-Nov-17 12:00N 44°32' W 087°59'0 0.0 998.0 2.4
2017-Nov-17 11:30N 44°32' W 087°59'0 0.0 998.3 2.4
2017-Nov-17 11:00N 44°32' W 087°59'0 0.0 998.8 2.4
2017-Nov-17 10:30N 44°32' W 087°59'0 0.0 998.7 2.4
2017-Nov-17 10:00N 44°32' W 087°59'0 0.0 999.9 2.3
2017-Nov-17 09:30N 44°32' W 087°59'0 0.0 1000.1 2.4
2017-Nov-17 09:00N 44°32' W 087°59'0 0.0 999.1 2.4
2017-Nov-17 08:30N 44°32' W 087°59'0 0.0 1000.0 2.5
2017-Nov-17 08:00N 44°32' W 087°59'0 0.0 1000.4 2.6
2017-Nov-17 07:30N 44°32' W 087°59'0 0.0 1001.5 2.7
2017-Nov-17 07:00N 44°32' W 087°59'0 0.0 1002.0 2.7
2017-Nov-17 06:30N 44°32' W 087°59'0 0.0 1002.2 2.7
2017-Nov-17 06:00N 44°32' W 087°59'0 0.0 1002.2 2.8
2017-Nov-17 05:30N 44°32' W 087°59'0 0.0 1002.2 2.7
2017-Nov-17 05:00N 44°32' W 087°59'0 0.0 1002.0 2.7
2017-Nov-17 04:30N 44°32' W 087°59'0 0.0 1001.7 2.6
2017-Nov-17 04:00N 44°32' W 087°59'0 0.0 1001.9 2.6
2017-Nov-17 03:00N 44°32' W 087°59'0 0.0 1003.0 2.6
2017-Nov-17 02:30N 44°32' W 087°59'0 0.0 1003.0 2.6
2017-Nov-17 02:00N 44°32' W 087°59'0 0.0 1003.7 2.8
2017-Nov-17 01:30N 44°32' W 087°59'0 0.0 1003.9 2.8
2017-Nov-17 01:00N 44°32' W 087°59'0 0.0 1003.7 2.7
2017-Nov-17 00:30N 44°32' W 087°59'0 0.0 1003.5 2.4
2017-Nov-17 00:00N 44°32' W 087°59'0 0.0 1003.7 2.5
2017-Nov-16 23:30N 44°32' W 087°59'0 0.0 1003.4 2.6
2017-Nov-16 23:00N 44°32' W 087°59'0 0.0 1003.2 2.7
2017-Nov-16 22:30N 44°32' W 087°59'0 0.0 1003.2 2.7
2017-Nov-16 22:00N 44°32' W 087°59'0 0.0 1003.0 2.7
2017-Nov-16 21:30N 44°32' W 087°59'0 0.0 1003.0 3.1
2017-Nov-16 21:00N 44°32' W 087°59'0 0.0 1002.5 3.3
2017-Nov-16 20:30N 44°32' W 087°59'0 0.0 1002.7 3.3
2017-Nov-16 20:00N 44°32' W 087°59'0 0.0 1002.5 3.2
2017-Nov-16 19:30N 44°32' W 087°59'0 0.0 1002.4 3.0
2017-Nov-16 19:00N 44°32' W 087°59'0 0.0 1002.5 2.7
2017-Nov-16 18:30N 44°32' W 087°59'0 0.0 1002.6 2.4
2017-Nov-16 18:00N 44°32' W 087°59'0 0.0 1002.7 2.4
2017-Nov-16 17:30N 44°32' W 087°59'0 0.0 1002.6 2.4
2017-Nov-16 17:00N 44°32' W 087°59'0 0.0 1002.4 2.1
2017-Nov-16 16:30N 44°32' W 087°59'0 0.0 1002.4 2.0
2017-Nov-16 16:00N 44°32' W 087°59'0 0.0 1001.8 1.9
2017-Nov-16 15:30N 44°32' W 087°59'0 0.0 1001.2 2.0
2017-Nov-16 15:00N 44°32' W 087°59'0 0.0 1000.9 2.0
2017-Nov-16 14:30N 44°32' W 087°59'0 0.0 1000.5 2.0
2017-Nov-16 14:00N 44°32' W 087°59'0 0.0 1000.1 2.1
2017-Nov-16 13:30N 44°32' W 087°59'0 0.0 999.5 2.1
2017-Nov-16 13:00N 44°32' W 087°59'0 0.0 998.9 2.4
2017-Nov-16 12:30N 44°32' W 087°59'0 0.0 998.3 2.4
2017-Nov-16 12:00N 44°32' W 087°59'0 0.0 997.8 2.5
2017-Nov-16 11:30N 44°32' W 087°59'0 0.0 997.3 2.6
2017-Nov-16 11:00N 44°32' W 087°59'0 0.0 996.7 2.7
2017-Nov-16 10:30N 44°32' W 087°59'0 0.0 996.3 2.7
2017-Nov-16 10:00N 44°32' W 087°59'0 0.0 995.6 2.6
2017-Nov-16 09:30N 44°32' W 087°59'0 0.0 995.1 2.6
2017-Nov-16 09:00N 44°32' W 087°59'0 0.0 994.5 2.7
2017-Nov-16 08:30N 44°32' W 087°59'0 0.0 993.9 2.7
2017-Nov-16 08:00N 44°32' W 087°59'0 0.0 993.4 2.7
2017-Nov-16 07:30N 44°32' W 087°59'0 0.0 992.7 2.9
2017-Nov-16 07:00N 44°32' W 087°59'0 0.0 992.3 3.0
2017-Nov-16 06:30N 44°32' W 087°59'0 0.0 991.7 3.0
2017-Nov-16 06:00N 44°32' W 087°59'0 0.0 991.4 3.0
2017-Nov-16 05:30N 44°32' W 087°59'0 0.0 990.8 3.1
2017-Nov-16 05:00N 44°32' W 087°59'0 0.0 990.5 1.9
2017-Nov-16 04:30N 44°32' W 087°59'0 0.0 990.0 2.1
2017-Nov-16 04:00N 44°32' W 087°59'0 0.0 989.8 2.1
2017-Nov-16 03:30N 44°32' W 087°59'0 0.0 989.5 2.4
2017-Nov-16 03:00N 44°32' W 087°59'0 0.0 989.0 3.7
2017-Nov-16 02:30N 44°32' W 087°59'0 0.0 988.7 4.3
2017-Nov-16 02:00N 44°32' W 087°59'0 0.0 988.4 4.5
2017-Nov-16 01:30N 44°32' W 087°59'0 0.0 988.0 4.6
2017-Nov-16 01:00N 44°32' W 087°59'0 0.0 987.6 4.5
2017-Nov-16 00:30N 44°32' W 087°59'0 0.0 987.0 4.5
2017-Nov-16 00:00N 44°32' W 087°59'0 0.0 986.4 4.9
2017-Nov-15 23:30N 44°32' W 087°59'0 0.0 985.6 4.9
2017-Nov-15 23:00N 44°32' W 087°59'0 0.0 985.0 4.9
2017-Nov-15 22:30N 44°32' W 087°59'0 0.0 984.8 4.9
2017-Nov-15 22:00N 44°32' W 087°59'0 0.0 984.5 5.1
2017-Nov-15 21:30N 44°32' W 087°59'0 0.0 984.3 5.0
2017-Nov-15 21:00N 44°32' W 087°59'0 0.0 983.9 5.0
2017-Nov-15 20:30N 44°32' W 087°59'0 0.0 983.5 5.0
2017-Nov-15 20:00N 44°32' W 087°59'0 0.0 983.3 4.9
2017-Nov-15 19:30N 44°32' W 087°59'0 0.0 983.0 4.9
2017-Nov-15 19:00N 44°32' W 087°59'0 0.0 982.9 4.7
2017-Nov-15 18:30N 44°32' W 087°59'0 0.0 983.0 4.5
2017-Nov-15 18:00N 44°32' W 087°59'0 0.0 983.2 4.4
2017-Nov-15 17:30N 44°32' W 087°59'0 0.0 983.5 4.3
2017-Nov-15 17:00N 44°32' W 087°59'0 0.0 984.0 4.1
2017-Nov-15 14:00N 44°32' W 087°59'0 0.0 986.2 4.1
2017-Nov-15 13:30N 44°32' W 087°59'0 0.0 986.5 4.1
2017-Nov-15 13:00N 44°32' W 087°59'0 0.0 986.5 4.1
2017-Nov-15 12:30N 44°32' W 087°59'0 0.0 986.6 4.0
2017-Nov-15 12:00N 44°32' W 087°59'0 0.0 987.2 4.1
2017-Nov-15 11:30N 44°32' W 087°59'0 0.0 987.2 4.0
2017-Nov-15 11:00N 44°32' W 087°59'0 0.0 987.6 4.0
2017-Nov-15 10:30N 44°32' W 087°59'0 0.0 988.1 3.9
2017-Nov-15 10:00N 44°32' W 087°59'0 0.0 988.6 3.9
2017-Nov-15 09:30N 44°32' W 087°59'0 0.0 989.0 3.9
2017-Nov-15 09:00N 44°32' W 087°59'0 0.0 989.6 3.8
2017-Nov-15 08:30N 44°32' W 087°59'0 0.0 990.1 3.7
2017-Nov-15 08:00N 44°32' W 087°59'0 0.0 990.2 3.7
2017-Nov-15 07:30N 44°32' W 087°59'0 0.0 990.9 3.6
2017-Nov-15 07:00N 44°32' W 087°59'0 0.0 991.6 3.5
2017-Nov-15 06:30N 44°32' W 087°59'0 0.0 992.1 2.9
2017-Nov-15 06:00N 44°32' W 087°59'0 0.0 992.7 3.0
2017-Nov-15 05:30N 44°32' W 087°59'0 0.0 992.8 3.1
2017-Nov-15 05:00N 44°32' W 087°59'0 0.0 993.3 3.1
2017-Nov-15 04:30N 44°32' W 087°59'0 0.0 993.8 3.1
2017-Nov-15 04:00N 44°32' W 087°59'0 0.0 993.9 2.9
2017-Nov-15 03:30N 44°32' W 087°59'0 0.0 994.1 2.7
2017-Nov-15 03:00N 44°32' W 087°59'0 0.0 994.1 2.4
2017-Nov-15 02:30N 44°32' W 087°59'0 0.0 994.5 2.3
2017-Nov-15 02:00N 44°32' W 087°59'0 0.0 994.6 2.4
2017-Nov-15 01:30N 44°32' W 087°59'0 0.0 994.8 2.6
2017-Nov-15 01:00N 44°32' W 087°59'0 0.0 995.2 2.7
2017-Nov-15 00:30N 44°32' W 087°59'0 0.0 995.3 2.9
2017-Nov-15 00:00N 44°32' W 087°59'0 0.0 995.7 3.0
2017-Nov-14 23:30N 44°32' W 087°59'0 0.0 995.9 2.9
2017-Nov-14 23:00N 44°32' W 087°59'0 0.0 996.1 3.1
2017-Nov-14 22:30N 44°32' W 087°59'0 0.0 996.4 3.1
2017-Nov-14 22:00N 44°32' W 087°59'0 0.0 996.4 3.0
2017-Nov-14 21:30N 44°32' W 087°59'0 0.0 996.8 3.1
2017-Nov-14 21:00N 44°32' W 087°59'0 0.0 997.1 3.1
2017-Nov-14 20:30N 44°32' W 087°59'0 0.0 997.3 3.0
2017-Nov-14 20:00N 44°32' W 087°59'0 0.0 997.5 2.8
2017-Nov-14 19:30N 44°32' W 087°59'0 0.0 998.2 2.7
2017-Nov-14 19:00N 44°32' W 087°59'0 0.0 998.6 2.5
2017-Nov-14 18:30N 44°32' W 087°59'0 0.0 999.2 2.2
2017-Nov-14 18:00N 44°32' W 087°59'0 0.0 999.5 1.9
2017-Nov-14 17:30N 44°32' W 087°59'0 0.0 1000.0 1.8
2017-Nov-14 17:00N 44°32' W 087°59'0 0.0 1000.6 1.8
2017-Nov-14 16:30N 44°32' W 087°59'0 0.0 1001.2 1.9
2017-Nov-14 16:00N 44°32' W 087°59'0 0.0 1001.4 2.0
2017-Nov-14 15:30N 44°32' W 087°59'0 0.0 1001.8 1.6
2017-Nov-14 15:00N 44°32' W 087°59'0 0.0 1002.0 1.6
2017-Nov-14 14:30N 44°32' W 087°59'0 0.0 1002.5 1.5
2017-Nov-14 14:00N 44°32' W 087°59'0 0.0 1002.7 1.6
2017-Nov-14 13:30N 44°32' W 087°59'0 0.0 1002.7 1.7
2017-Nov-14 13:00N 44°32' W 087°59'0 0.0 1002.6 1.8
2017-Nov-14 12:30N 44°32' W 087°59'0 0.0 1003.0 2.1
2017-Nov-14 12:00N 44°32' W 087°59'0 0.0 1003.2 2.2
2017-Nov-14 11:30N 44°32' W 087°59'0 0.0 1003.7 2.1
2017-Nov-14 11:00N 44°32' W 087°59'0 0.0 1004.0 1.6
2017-Nov-14 10:30N 44°32' W 087°59'0 0.0 1004.0 1.5
2017-Nov-14 10:00N 44°32' W 087°59'0 0.0 1004.0 1.5
2017-Nov-14 09:30N 44°32' W 087°59'0 0.0 1004.5 1.6
2017-Nov-14 09:00N 44°32' W 087°59'0 0.0 1004.8 1.6
2017-Nov-14 08:30N 44°32' W 087°59'0 0.0 1005.0 1.6
2017-Nov-14 08:00N 44°32' W 087°59'0 0.0 1005.1 1.5
2017-Nov-14 07:30N 44°32' W 087°59'0 0.0 1004.8 1.6
2017-Nov-14 07:00N 44°32' W 087°59'0 0.0 1004.9 1.4
2017-Nov-14 06:30N 44°32' W 087°59'0 0.0 1005.0 1.7
2017-Nov-14 06:00N 44°32' W 087°59'0 0.0 1005.3 1.7
2017-Nov-14 05:30N 44°32' W 087°59'0 0.0 1005.4 1.8
2017-Nov-14 05:00N 44°32' W 087°59'0 0.0 1005.5 1.7
2017-Nov-14 04:30N 44°32' W 087°59'0 0.0 1005.7 1.8
2017-Nov-14 04:00N 44°32' W 087°59'0 0.0 1005.9 1.8
2017-Nov-14 03:30N 44°32' W 087°59'0 0.0 1006.1 1.9
2017-Nov-14 03:00N 44°32' W 087°59'0 0.0 1006.2 2.0
2017-Nov-14 02:30N 44°32' W 087°59'0 0.0 1006.3 2.1
2017-Nov-14 02:00N 44°32' W 087°59'0 0.0 1006.5 2.1
2017-Nov-14 01:30N 44°32' W 087°59'0 0.0 1006.6 2.1
2017-Nov-14 01:00N 44°32' W 087°59'0 0.0 1006.7 2.2
2017-Nov-14 00:30N 44°32' W 087°59'0 0.0 1006.8 2.1
2017-Nov-14 00:00N 44°32' W 087°59'0 0.0 1006.9 2.0
2017-Nov-13 23:30N 44°32' W 087°59'0 0.0 1007.2 2.2
2017-Nov-13 23:00N 44°32' W 087°59'0 0.0 1007.1 2.3
2017-Nov-13 22:30N 44°32' W 087°59'0 0.0 1007.1 2.6
2017-Nov-13 22:00N 44°32' W 087°59'0 0.0 1007.6 2.7
2017-Nov-13 21:30N 44°32' W 087°59'0 0.0 1007.7 2.7
2017-Nov-13 21:00N 44°32' W 087°59'0 0.0 1007.6 2.8
2017-Nov-13 20:30N 44°32' W 087°59'0 0.0 1007.9 2.6
2017-Nov-13 20:00N 44°32' W 087°59'0 0.0 1008.3 2.4
2017-Nov-13 19:30N 44°32' W 087°59'0 0.0 1008.7 2.4
2017-Nov-13 19:00N 44°32' W 087°59'0 0.0 1008.8 2.4
2017-Nov-13 18:30N 44°32' W 087°59'0 0.0 1009.1 2.1
2017-Nov-13 18:00N 44°32' W 087°59'0 0.0 1009.4 1.9
2017-Nov-13 17:30N 44°32' W 087°59'0 0.0 1009.7 1.8
2017-Nov-13 17:00N 44°32' W 087°59'0 0.0 1009.7 1.9
2017-Nov-13 16:30N 44°32' W 087°59'0 0.0 1009.8 1.7
2017-Nov-13 16:00N 44°32' W 087°59'0 0.0 1009.7 1.7
2017-Nov-13 15:30N 44°32' W 087°59'0 0.0 1009.7 1.7
2017-Nov-13 15:00N 44°32' W 087°59'0 0.0 1009.6 1.7
2017-Nov-13 14:30N 44°32' W 087°59'0 0.0 1009.6 1.8
2017-Nov-13 14:00N 44°32' W 087°59'0 0.0 1009.4 1.8
2017-Nov-13 13:30N 44°32' W 087°59'0 0.0 1009.0 1.8
2017-Nov-13 13:00N 44°32' W 087°59'0 0.0 1008.8 1.9
2017-Nov-13 12:30N 44°32' W 087°59'0 0.0 1008.4 2.0
2017-Nov-13 12:00N 44°32' W 087°59'0 0.0 1008.5 2.0
2017-Nov-13 11:30N 44°32' W 087°59'0 0.0 1008.4 1.8
2017-Nov-13 11:00N 44°32' W 087°59'0 0.0 1008.2 1.9
2017-Nov-13 10:30N 44°32' W 087°59'0 0.0 1007.9 2.0
2017-Nov-13 10:00N 44°32' W 087°59'0 0.0 1007.8 2.2
2017-Nov-13 09:30N 44°32' W 087°59'0 0.0 1007.6 2.2
2017-Nov-13 09:00N 44°32' W 087°59'0 0.0 1007.6 2.2
2017-Nov-13 08:30N 44°32' W 087°59'0 0.0 1007.6 2.3
2017-Nov-13 08:00N 44°32' W 087°59'0 0.0 1007.9 2.4
2017-Nov-13 07:30N 44°32' W 087°59'0 0.0 1007.5 2.0
2017-Nov-13 07:00N 44°32' W 087°59'0 0.0 1007.4 1.5
2017-Nov-13 06:30N 44°32' W 087°59'0 0.0 1007.6 1.5
2017-Nov-13 06:00N 44°32' W 087°59'0 0.0 1007.7 1.5
2017-Nov-13 05:30N 44°32' W 087°59'0 0.0 1007.3 1.7
2017-Nov-13 05:00N 44°32' W 087°59'0 0.0 1007.2 1.7
2017-Nov-13 04:30N 44°32' W 087°59'0 0.0 1007.4 1.6
2017-Nov-13 04:00N 44°32' W 087°59'0 0.0 1007.3 1.7
2017-Nov-13 03:30N 44°32' W 087°59'0 0.0 1007.2 1.7
2017-Nov-13 03:00N 44°32' W 087°59'0 0.0 1007.0 1.9
2017-Nov-13 02:30N 44°32' W 087°59'0 0.0 1007.0 2.4
2017-Nov-13 02:00N 44°32' W 087°59'0 0.0 1006.9 2.3
2017-Nov-13 01:30N 44°32' W 087°59'0 0.0 1006.7 2.7
2017-Nov-13 01:00N 44°32' W 087°59'0 0.0 1006.7 2.6
2017-Nov-13 00:30N 44°32' W 087°59'0 0.0 1006.8 2.7
2017-Nov-13 00:00N 44°32' W 087°59'0 0.0 1006.5 2.5
2017-Nov-12 23:30N 44°32' W 087°59'0 0.0 1006.3 2.6
2017-Nov-12 23:00N 44°32' W 087°59'0 0.0 1006.2 2.7
2017-Nov-12 22:30N 44°32' W 087°59'0 0.0 1006.0 2.8
2017-Nov-12 22:00N 44°32' W 087°59'0 0.0 1005.8 2.6
2017-Nov-12 21:30N 44°32' W 087°59'0 0.0 1005.7 2.2
2017-Nov-12 21:00N 44°32' W 087°59'0 0.0 1005.6 2.0
2017-Nov-12 20:30N 44°32' W 087°59'0 0.0 1005.5 1.6
2017-Nov-12 20:00N 44°32' W 087°59'0 0.0 1005.6 1.1
2017-Nov-12 19:30N 44°32' W 087°59'0 0.0 1005.7 1.1
2017-Nov-12 19:00N 44°32' W 087°59'0 0.0 1005.8 1.2
2017-Nov-12 18:30N 44°32' W 087°59'0 0.0 1005.9 1.2
2017-Nov-12 18:00N 44°32' W 087°59'0 0.0 1006.1 1.2
2017-Nov-12 17:30N 44°32' W 087°59'0 0.0 1006.2 1.1
2017-Nov-12 17:00N 44°32' W 087°59'0 0.0 1006.5 1.0
2017-Nov-12 16:30N 44°32' W 087°59'0 0.0 1006.4 1.2
2017-Nov-12 16:00N 44°32' W 087°59'0 0.0 1006.3 1.4
2017-Nov-12 15:30N 44°32' W 087°59'0 0.0 1006.1 1.3
2017-Nov-12 15:00N 44°32' W 087°59'0 0.0 1006.1 1.2
2017-Nov-12 14:30N 44°32' W 087°59'0 0.0 1006.0 1.1
2017-Nov-12 14:00N 44°32' W 087°59'0 0.0 1005.8 1.0
2017-Nov-12 13:30N 44°32' W 087°59'0 0.0 1005.6 0.8
2017-Nov-12 13:00N 44°32' W 087°59'0 0.0 1005.5 0.7
2017-Nov-12 12:30N 44°32' W 087°59'0 0.0 1005.2 0.8
2017-Nov-12 12:00N 44°32' W 087°59'0 0.0 1005.2 0.8
2017-Nov-12 11:30N 44°32' W 087°59'0 0.0 1005.0 0.9
2017-Nov-12 11:00N 44°32' W 087°59'0 0.0 1004.6 0.7
2017-Nov-12 10:30N 44°32' W 087°59'0 0.0 1004.5 0.9
2017-Nov-12 10:00N 44°32' W 087°59'0 0.0 1004.4 0.9
2017-Nov-12 09:30N 44°32' W 087°59'0 0.0 1004.4 0.9
2017-Nov-12 09:00N 44°32' W 087°59'0 0.0 1004.3 0.9
2017-Nov-12 08:30N 44°32' W 087°59'0 0.0 1004.2 0.9
2017-Nov-12 08:00N 44°32' W 087°59'0 0.0 1004.2 0.9
2017-Nov-12 07:30N 44°32' W 087°59'0 0.0 1004.0 0.8
2017-Nov-12 06:30N 44°32' W 087°59'0 0.0 1003.8 0.9
2017-Nov-12 06:00N 44°32' W 087°59'0 0.0 1003.7 0.9
2017-Nov-12 05:30N 44°32' W 087°59'0 0.0 1003.7 0.9
2017-Nov-12 05:00N 44°32' W 087°59'0 0.0 1003.7 0.8
2017-Nov-12 04:30N 44°32' W 087°59'0 0.0 1003.6 0.8
2017-Nov-12 04:00N 44°32' W 087°59'0 0.0 1003.4 1.0
2017-Nov-12 03:30N 44°32' W 087°59'0 0.0 1003.3 1.2
2017-Nov-12 03:00N 44°32' W 087°59'0 0.0 1003.0 1.2
2017-Nov-12 02:30N 44°32' W 087°59'0 0.0 1002.9 1.1
2017-Nov-12 02:00N 44°32' W 087°59'0 0.0 1002.8 1.0
2017-Nov-12 01:30N 44°32' W 087°59'0 0.0 1002.8 0.9
2017-Nov-12 01:00N 44°32' W 087°59'0 0.0 1002.7 0.9
2017-Nov-12 00:30N 44°32' W 087°59'0 0.0 1002.7 0.9
2017-Nov-12 00:00N 44°32' W 087°59'0 0.0 1002.5 0.9
2017-Nov-11 23:30N 44°32' W 087°59'0 0.0 1002.2 0.9
2017-Nov-11 23:00N 44°32' W 087°59'0 0.0 1002.0 1.1
2017-Nov-11 22:30N 44°32' W 087°59'0 0.0 1002.1 1.1
2017-Nov-11 22:00N 44°32' W 087°59'0 0.0 1001.9 1.1
2017-Nov-11 21:30N 44°32' W 087°59'0 0.0 1001.9 1.1
2017-Nov-11 21:00N 44°32' W 087°59'0 0.0 1002.0 1.1
2017-Nov-11 20:30N 44°32' W 087°59'0 0.0 1002.2 1.1
2017-Nov-11 20:00N 44°32' W 087°59'0 0.0 1002.1 1.1
2017-Nov-11 19:30N 44°32' W 087°59'0 0.0 1002.6 1.1
2017-Nov-11 19:00N 44°32' W 087°59'0 0.0 1002.9 1.0
2017-Nov-11 18:30N 44°32' W 087°59'0 0.0 1003.4 0.9
2017-Nov-11 18:00N 44°32' W 087°59'0 0.0 1003.7 0.8
2017-Nov-11 17:30N 44°32' W 087°59'0 0.0 1004.3 0.8
2017-Nov-11 17:00N 44°32' W 087°59'0 0.0 1004.7 0.8
2017-Nov-11 16:30N 44°32' W 087°59'0 0.0 1005.2 0.8
2017-Nov-11 16:00N 44°32' W 087°59'0 0.0 1005.5 0.9
2017-Nov-11 15:30N 44°32' W 087°59'0 0.0 1005.8 0.9
2017-Nov-11 15:00N 44°32' W 087°59'0 0.0 1005.8 0.8
2017-Nov-11 14:30N 44°32' W 087°59'0 0.0 1006.2 0.8
2017-Nov-11 14:00N 44°32' W 087°59'0 0.0 1006.7 0.7
2017-Nov-11 13:30N 44°32' W 087°59'0 0.0 1006.8 0.7
2017-Nov-11 13:00N 44°32' W 087°59'0 0.0 1006.7 0.7
2017-Nov-11 12:30N 44°32' W 087°59'0 0.0 1007.0 0.7
2017-Nov-11 12:00N 44°32' W 087°59'0 0.0 1007.1 0.7
2017-Nov-11 11:30N 44°32' W 087°59'0 0.0 1007.1 0.8
2017-Nov-11 11:00N 44°32' W 087°59'0 0.0 1007.5 0.8
2017-Nov-11 10:30N 44°32' W 087°59'0 0.0 1007.5 0.8
2017-Nov-11 10:00N 44°32' W 087°59'0 0.0 1007.8 0.9
2017-Nov-11 09:30N 44°32' W 087°59'0 0.0 1007.8 0.8
2017-Nov-11 09:00N 44°32' W 087°59'0 0.0 1008.6 0.7
2017-Nov-11 08:30N 44°32' W 087°59'0 0.0 1008.9 0.9
2017-Nov-11 08:00N 44°32' W 087°59'0 0.0 1008.9 0.9
2017-Nov-11 07:00N 44°32' W 087°59'0 0.0 1008.8 0.7
2017-Nov-11 06:30N 44°32' W 087°59'0 0.0 1009.1 0.7
2017-Nov-11 06:00N 44°32' W 087°59'0 0.0 1009.4 0.8
2017-Nov-11 05:30N 44°32' W 087°59'0 0.0 1009.9 0.9
2017-Nov-11 05:00N 44°32' W 087°59'0 0.0 1010.1 0.9
2017-Nov-11 04:30N 44°32' W 087°59'0 0.0 1010.5 0.9
2017-Nov-11 04:00N 44°32' W 087°59'0 0.0 1011.1 0.9
2017-Nov-11 03:30N 44°32' W 087°59'0 0.0 1011.5 1.0
2017-Nov-11 03:00N 44°32' W 087°59'0 0.0 1011.9 1.0
2017-Nov-11 02:30N 44°32' W 087°59'0 0.0 1011.8 0.8
2017-Nov-11 02:00N 44°32' W 087°59'0 0.0 1012.5 0.8
2017-Nov-11 01:30N 44°32' W 087°59'0 0.0 1012.9 0.8
2017-Nov-11 01:00N 44°32' W 087°59'0 0.0 1013.1 1.0
2017-Nov-11 00:30N 44°32' W 087°59'0 0.0 1013.1 1.1
2017-Nov-11 00:00N 44°32' W 087°59'0 0.0 1013.1 1.1
2017-Nov-10 23:30N 44°32' W 087°59'0 0.0 1013.4 1.2
2017-Nov-10 23:00N 44°32' W 087°59'0 0.0 1013.3 1.2
2017-Nov-10 22:30N 44°32' W 087°59'0 0.0 1013.6 1.3
2017-Nov-10 22:00N 44°32' W 087°59'0 0.0 1013.6 1.4
2017-Nov-10 21:30N 44°32' W 087°59'0 0.0 1014.0 1.4
2017-Nov-10 21:00N 44°32' W 087°59'0 0.0 1014.2 1.6
2017-Nov-10 20:30N 44°32' W 087°59'0 0.0 1014.4 1.5
2017-Nov-10 20:00N 44°32' W 087°59'0 0.0 1014.4 1.2
2017-Nov-10 19:30N 44°32' W 087°59'0 0.0 1014.8 1.0
2017-Nov-10 19:00N 44°32' W 087°59'0 0.0 1015.1 0.7
2017-Nov-10 18:30N 44°32' W 087°59'0 0.0 1015.5 0.4
2017-Nov-10 18:00N 44°32' W 087°59'0 0.0 1015.8 0.3
2017-Nov-10 17:30N 44°32' W 087°59'0 0.0 1016.2 0.3
2017-Nov-10 17:00N 44°32' W 087°59'0 0.0 1016.5 0.3
2017-Nov-10 16:30N 44°32' W 087°59'0 0.0 1016.9 0.3
2017-Nov-10 16:00N 44°32' W 087°59'0 0.0 1016.9 0.2
2017-Nov-10 15:30N 44°32' W 087°59'0 0.0 1017.2 0.1
2017-Nov-10 15:00N 44°32' W 087°59'0 0.0 1017.0 -0.0
2017-Nov-10 14:30N 44°32' W 087°59'0 0.0 1017.1 -0.0
2017-Nov-10 14:00N 44°32' W 087°59'0 0.0 1016.9 0.1
2017-Nov-10 13:30N 44°32' W 087°59'0 0.0 1016.6 0.1
2017-Nov-10 13:00N 44°32' W 087°59'0 0.0 1016.1 0.1
2017-Nov-10 12:30N 44°32' W 087°59'0 0.0 1015.7 -0.0
2017-Nov-10 12:00N 44°32' W 087°59'0 0.0 1015.4 -0.0
2017-Nov-10 11:30N 44°32' W 087°59'0 0.0 1015.3 0.1
2017-Nov-10 11:00N 44°32' W 087°59'0 0.0 1015.1 -0.0
2017-Nov-10 10:30N 44°32' W 087°59'0 0.0 1015.0 -0.0
2017-Nov-10 10:00N 44°32' W 087°59'0 0.0 1014.8 -0.0
2017-Nov-10 09:30N 44°32' W 087°59'0 0.0 1014.4 -0.0
2017-Nov-10 09:00N 44°32' W 087°59'0 0.0 1014.0 -0.0
2017-Nov-10 08:30N 44°32' W 087°59'0 0.0 1013.6 -0.0
2017-Nov-10 08:00N 44°32' W 087°59'0 0.0 1013.0 -0.1
2017-Nov-10 07:30N 44°32' W 087°59'0 0.0 1012.5 -0.0
2017-Nov-10 07:00N 44°32' W 087°59'0 0.0 1012.1 0.1
2017-Nov-10 06:30N 44°32' W 087°59'0 0.0 1011.7 0.1
2017-Nov-10 06:00N 44°32' W 087°59'0 0.0 1011.3 -0.0
2017-Nov-10 05:30N 44°32' W 087°59'0 0.0 1010.9 0.1
2017-Nov-10 05:00N 44°32' W 087°59'0 0.0 1010.4 0.2
2017-Nov-10 04:30N 44°32' W 087°59'0 0.0 1010.2 0.1
2017-Nov-10 04:00N 44°32' W 087°59'0 0.0 1010.2 0.1
2017-Nov-10 03:30N 44°32' W 087°59'0 0.0 1009.9 -0.0
2017-Nov-10 03:00N 44°32' W 087°59'0 0.0 1009.7 0.1
2017-Nov-10 02:30N 44°32' W 087°59'0 0.0 1009.1 -0.0
2017-Nov-10 02:00N 44°32' W 087°59'0 0.0 1008.7 -0.0
2017-Nov-10 01:30N 44°32' W 087°59'0 0.0 1008.3 -0.0
2017-Nov-10 01:00N 44°32' W 087°59'0 0.0 1007.8 -0.0
2017-Nov-10 00:30N 44°32' W 087°59'0 0.0 1007.3 -0.0
2017-Nov-10 00:00N 44°32' W 087°59'0 0.0 1006.8 -0.0
2017-Nov-09 23:30N 44°32' W 087°59'0 0.0 1006.3 -0.0
2017-Nov-09 23:00N 44°32' W 087°59'0 0.0 1005.8 0.1
2017-Nov-09 22:30N 44°32' W 087°59'0 0.0 1005.0 0.2
2017-Nov-09 22:00N 44°32' W 087°59'0 0.0 1004.0 -0.8
2017-Nov-09 21:30N 44°32' W 087°59'0 0.0 1003.0 0.1
2017-Nov-09 21:00N 44°32' W 087°59'0 0.0 1002.2 -0.1
2017-Nov-09 20:30N 44°32' W 087°59'0 0.0 1001.3 -0.0
2017-Nov-09 20:00N 44°32' W 087°59'0 0.0 1000.8 -0.0
2017-Nov-09 19:30N 44°32' W 087°59'0 0.0 1000.1 2.3
2017-Nov-09 19:00N 44°32' W 087°59'0 0.0 999.7 2.3
2017-Nov-09 18:30N 44°32' W 087°59'0 0.0 999.3 2.3
2017-Nov-09 18:00N 44°32' W 087°59'0 0.0 998.9 2.4
2017-Nov-09 17:30N 44°32' W 087°59'0 0.0 998.5 2.7
2017-Nov-09 17:00N 44°32' W 087°59'0 0.0 998.3 2.3
2017-Nov-09 16:30N 44°32' W 087°59'0 0.0 998.0 2.3
2017-Nov-09 16:00N 44°32' W 087°59'0 0.0 997.5 2.2
2017-Nov-09 15:30N 44°32' W 087°59'0 0.0 997.3 2.1
2017-Nov-09 15:00N 44°32' W 087°59'0 0.0 997.1 2.2
2017-Nov-09 14:30N 44°32' W 087°59'0 0.0 996.7 2.5
2017-Nov-09 14:00N 44°32' W 087°59'0 0.0 996.4 2.7
2017-Nov-09 13:30N 44°32' W 087°59'0 0.0 995.7 2.8
2017-Nov-09 13:00N 44°32' W 087°59'0 0.0 995.2 2.9
2017-Nov-09 12:30N 44°32' W 087°59'0 0.0 995.0 3.0
2017-Nov-09 12:00N 44°32' W 087°59'0 0.0 994.6 3.1
2017-Nov-09 11:30N 44°32' W 087°59'0 0.0 994.5 3.2
2017-Nov-09 11:00N 44°32' W 087°59'0 0.0 994.0 3.0
2017-Nov-09 10:30N 44°32' W 087°59'0 0.0 993.8 2.8
2017-Nov-09 10:00N 44°32' W 087°59'0 0.0 994.0 3.1
2017-Nov-09 09:30N 44°32' W 087°59'0 0.0 993.8 3.1
2017-Nov-09 09:00N 44°32' W 087°59'0 0.0 994.0 3.1
2017-Nov-09 08:30N 44°32' W 087°59'0 0.0 994.5 3.1
2017-Nov-09 08:00N 44°32' W 087°59'0 0.0 994.5 2.9
2017-Nov-09 07:30N 44°32' W 087°59'0 0.0 995.3 2.8
2017-Nov-09 07:00N 44°32' W 087°59'0 0.0 995.9 2.8
2017-Nov-09 06:30N 44°32' W 087°59'0 0.0 996.4 2.8
2017-Nov-09 06:00N 44°32' W 087°59'0 0.0 996.8 2.8
2017-Nov-09 05:30N 44°32' W 087°59'0 0.0 997.3 2.8
2017-Nov-09 05:00N 44°32' W 087°59'0 0.0 997.4 2.8
2017-Nov-09 04:30N 44°32' W 087°59'0 0.0 997.8 2.7
2017-Nov-09 04:00N 44°32' W 087°59'0 0.0 998.4 2.7
2017-Nov-09 03:30N 44°32' W 087°59'0 0.0 998.6 2.6
2017-Nov-09 03:00N 44°32' W 087°59'0 0.0 998.6 2.6
2017-Nov-09 02:30N 44°32' W 087°59'0 0.0 999.0 2.5
2017-Nov-09 02:00N 44°32' W 087°59'0 0.0 999.2 2.4
2017-Nov-09 01:30N 44°32' W 087°59'0 0.0 999.5 2.5
2017-Nov-09 01:00N 44°32' W 087°59'0 0.0 999.8 2.9
2017-Nov-09 00:30N 44°32' W 087°59'0 0.0 1000.2 3.1
2017-Nov-09 00:00N 44°32' W 087°59'0 0.0 1000.1 3.3
2017-Nov-08 23:30N 44°32' W 087°59'0 0.0 1000.0 3.7
2017-Nov-08 22:30N 44°32' W 087°59'0 0.0 1000.1 3.7
2017-Nov-08 22:00N 44°32' W 087°59'0 0.0 1000.1 4.0
2017-Nov-08 21:30N 44°32' W 087°59'0 0.0 1000.3 3.8
2017-Nov-08 21:00N 44°32' W 087°59'0 0.0 1000.6 4.1
2017-Nov-08 20:30N 44°32' W 087°59'0 0.0 1000.8 4.2
2017-Nov-08 20:00N 44°32' W 087°59'0 0.0 1001.1 4.3
2017-Nov-08 19:30N 44°32' W 087°59'0 0.0 1001.2 4.1
2017-Nov-08 19:00N 44°32' W 087°59'0 0.0 1001.7 3.9
2017-Nov-08 18:30N 44°32' W 087°59'0 0.0 1002.2 3.6
2017-Nov-08 18:00N 44°32' W 087°59'0 0.0 1002.6 3.1
2017-Nov-08 17:30N 44°32' W 087°59'0 0.0 1003.1 3.0
2017-Nov-08 17:00N 44°32' W 087°59'0 0.0 1003.8 2.8
2017-Nov-08 16:30N 44°32' W 087°59'0 0.0 1004.0 2.4
2017-Nov-08 16:00N 44°32' W 087°59'0 0.0 1003.9 2.3
2017-Nov-08 15:30N 44°32' W 087°59'0 0.0 1003.9 2.1
2017-Nov-08 15:00N 44°32' W 087°59'0 0.0 1003.9 1.9
2017-Nov-08 14:30N 44°32' W 087°59'0 0.0 1003.9 1.8
2017-Nov-08 14:00N 44°32' W 087°59'0 0.0 1003.9 1.7
2017-Nov-08 13:30N 44°32' W 087°59'0 0.0 1004.0 1.6
2017-Nov-08 13:00N 44°32' W 087°59'0 0.0 1004.0 1.7
2017-Nov-08 12:30N 44°32' W 087°59'0 0.0 1003.9 1.7
2017-Nov-08 12:00N 44°32' W 087°59'0 0.0 1004.0 1.6
2017-Nov-08 11:30N 44°32' W 087°59'0 0.0 1004.1 1.6
2017-Nov-08 11:00N 44°32' W 087°59'0 0.0 1004.2 1.6
2017-Nov-08 10:30N 44°32' W 087°59'0 0.0 1004.3 1.7
2017-Nov-08 10:00N 44°32' W 087°59'0 0.0 1004.3 2.4
2017-Nov-08 09:30N 44°32' W 087°59'0 0.0 1004.4 2.3
2017-Nov-08 09:00N 44°32' W 087°59'0 0.0 1004.6 2.8
2017-Nov-08 08:30N 44°32' W 087°59'0 0.0 1004.8 3.2
2017-Nov-08 08:00N 44°32' W 087°59'0 0.0 1004.9 3.2
2017-Nov-08 07:30N 44°32' W 087°59'0 0.0 1005.0 3.1
2017-Nov-08 07:00N 44°32' W 087°59'0 0.0 1005.2 3.2
2017-Nov-08 06:30N 44°32' W 087°59'0 0.0 1005.3 3.2
2017-Nov-08 06:00N 44°32' W 087°59'0 0.0 1005.3 3.1
2017-Nov-08 05:30N 44°32' W 087°59'0 0.0 1005.2 3.3
2017-Nov-08 05:00N 44°32' W 087°59'0 0.0 1005.1 3.3
2017-Nov-08 04:30N 44°32' W 087°59'0 0.0 1005.1 3.4
2017-Nov-08 04:00N 44°32' W 087°59'0 0.0 1005.5 3.6
2017-Nov-08 03:30N 44°32' W 087°59'0 0.0 1005.5 3.5
2017-Nov-08 01:00N 44°32' W 087°59'0 0.0 1005.7 2.9
2017-Nov-08 00:30N 44°32' W 087°59'   1005.6 4.0

Dump ship's entire track history